sensor_id;sensor_type;location;lat;lon;timestamp;P1;durP1;ratioP1;P2;durP2;ratioP2
20454;SDS011;10386;54.314;10.022;2023-05-10T00:02:10;4.57;;;3.00;;
20454;SDS011;10386;54.314;10.022;2023-05-10T00:04:37;7.63;;;2.90;;
20454;SDS011;10386;54.314;10.022;2023-05-10T00:07:04;7.93;;;3.50;;
20454;SDS011;10386;54.314;10.022;2023-05-10T00:09:30;5.27;;;3.30;;
20454;SDS011;10386;54.314;10.022;2023-05-10T00:11:58;8.40;;;3.17;;
20454;SDS011;10386;54.314;10.022;2023-05-10T00:14:25;6.07;;;3.40;;
20454;SDS011;10386;54.314;10.022;2023-05-10T00:16:52;4.30;;;3.00;;
20454;SDS011;10386;54.314;10.022;2023-05-10T00:19:19;7.57;;;3.40;;
20454;SDS011;10386;54.314;10.022;2023-05-10T00:21:46;5.53;;;3.40;;
20454;SDS011;10386;54.314;10.022;2023-05-10T00:24:13;4.57;;;3.17;;
20454;SDS011;10386;54.314;10.022;2023-05-10T00:26:39;8.90;;;3.70;;
20454;SDS011;10386;54.314;10.022;2023-05-10T00:29:08;4.70;;;2.97;;
20454;SDS011;10386;54.314;10.022;2023-05-10T00:31:35;6.83;;;3.30;;
20454;SDS011;10386;54.314;10.022;2023-05-10T00:34:01;7.20;;;3.10;;
20454;SDS011;10386;54.314;10.022;2023-05-10T00:36:28;4.63;;;3.30;;
20454;SDS011;10386;54.314;10.022;2023-05-10T00:38:55;7.60;;;3.10;;
20454;SDS011;10386;54.314;10.022;2023-05-10T00:41:22;10.97;;;4.13;;
20454;SDS011;10386;54.314;10.022;2023-05-10T00:43:49;7.37;;;3.27;;
20454;SDS011;10386;54.314;10.022;2023-05-10T00:46:15;8.27;;;3.30;;
20454;SDS011;10386;54.314;10.022;2023-05-10T00:48:43;6.17;;;3.00;;
20454;SDS011;10386;54.314;10.022;2023-05-10T00:51:10;8.43;;;3.70;;
20454;SDS011;10386;54.314;10.022;2023-05-10T00:53:37;5.30;;;3.50;;
20454;SDS011;10386;54.314;10.022;2023-05-10T00:56:04;6.57;;;3.40;;
20454;SDS011;10386;54.314;10.022;2023-05-10T00:58:31;6.27;;;3.17;;
20454;SDS011;10386;54.314;10.022;2023-05-10T01:00:58;7.50;;;3.27;;
20454;SDS011;10386;54.314;10.022;2023-05-10T01:03:26;4.93;;;3.40;;
20454;SDS011;10386;54.314;10.022;2023-05-10T01:05:54;7.47;;;3.70;;
20454;SDS011;10386;54.314;10.022;2023-05-10T01:08:23;6.50;;;3.17;;
20454;SDS011;10386;54.314;10.022;2023-05-10T01:10:52;8.73;;;3.20;;
20454;SDS011;10386;54.314;10.022;2023-05-10T01:13:23;4.50;;;3.17;;
20454;SDS011;10386;54.314;10.022;2023-05-10T01:16:03;7.03;;;3.47;;
20454;SDS011;10386;54.314;10.022;2023-05-10T01:18:31;7.13;;;3.47;;
20454;SDS011;10386;54.314;10.022;2023-05-10T01:21:15;4.97;;;3.33;;
20454;SDS011;10386;54.314;10.022;2023-05-10T01:34:38;7.23;;;3.50;;
20454;SDS011;10386;54.314;10.022;2023-05-10T01:37:13;7.37;;;3.30;;
20454;SDS011;10386;54.314;10.022;2023-05-10T01:39:50;4.07;;;3.30;;
20454;SDS011;10386;54.314;10.022;2023-05-10T01:42:27;7.53;;;3.70;;
20454;SDS011;10386;54.314;10.022;2023-05-10T01:47:54;4.53;;;3.17;;
20454;SDS011;10386;54.314;10.022;2023-05-10T01:50:29;10.60;;;3.23;;
20454;SDS011;10386;54.314;10.022;2023-05-10T01:52:57;4.23;;;3.37;;
20454;SDS011;10386;54.314;10.022;2023-05-10T01:55:27;4.80;;;3.13;;
20454;SDS011;10386;54.314;10.022;2023-05-10T01:58:09;12.43;;;3.33;;
20454;SDS011;10386;54.314;10.022;2023-05-10T02:00:40;6.70;;;3.23;;
20454;SDS011;10386;54.314;10.022;2023-05-10T02:03:13;5.70;;;3.10;;
20454;SDS011;10386;54.314;10.022;2023-05-10T02:05:42;4.03;;;3.50;;
20454;SDS011;10386;54.314;10.022;2023-05-10T02:08:12;5.63;;;3.23;;
20454;SDS011;10386;54.314;10.022;2023-05-10T02:10:45;6.13;;;3.67;;
20454;SDS011;10386;54.314;10.022;2023-05-10T02:13:15;5.17;;;3.50;;
20454;SDS011;10386;54.314;10.022;2023-05-10T02:15:43;14.63;;;3.50;;
20454;SDS011;10386;54.314;10.022;2023-05-10T02:18:14;6.37;;;3.63;;
20454;SDS011;10386;54.314;10.022;2023-05-10T02:20:43;5.33;;;3.43;;
20454;SDS011;10386;54.314;10.022;2023-05-10T02:23:13;7.00;;;3.27;;
20454;SDS011;10386;54.314;10.022;2023-05-10T02:25:43;6.87;;;4.07;;
20454;SDS011;10386;54.314;10.022;2023-05-10T02:28:11;5.87;;;3.60;;
20454;SDS011;10386;54.314;10.022;2023-05-10T02:30:39;4.03;;;3.40;;
20454;SDS011;10386;54.314;10.022;2023-05-10T02:33:06;5.67;;;3.43;;
20454;SDS011;10386;54.314;10.022;2023-05-10T02:35:34;7.23;;;3.77;;
20454;SDS011;10386;54.314;10.022;2023-05-10T02:38:01;5.40;;;3.47;;
20454;SDS011;10386;54.314;10.022;2023-05-10T02:40:29;6.63;;;3.70;;
20454;SDS011;10386;54.314;10.022;2023-05-10T02:42:56;13.03;;;3.60;;
20454;SDS011;10386;54.314;10.022;2023-05-10T02:45:27;5.33;;;3.53;;
20454;SDS011;10386;54.314;10.022;2023-05-10T02:47:56;5.70;;;3.50;;
20454;SDS011;10386;54.314;10.022;2023-05-10T02:50:25;6.10;;;3.73;;
20454;SDS011;10386;54.314;10.022;2023-05-10T02:52:56;9.13;;;3.87;;
20454;SDS011;10386;54.314;10.022;2023-05-10T02:55:31;6.17;;;3.77;;
20454;SDS011;10386;54.314;10.022;2023-05-10T02:58:02;4.20;;;3.40;;
20454;SDS011;10386;54.314;10.022;2023-05-10T03:00:29;10.73;;;4.00;;
20454;SDS011;10386;54.314;10.022;2023-05-10T03:02:56;8.80;;;3.90;;
20454;SDS011;10386;54.314;10.022;2023-05-10T03:05:27;6.80;;;3.40;;
20454;SDS011;10386;54.314;10.022;2023-05-10T03:07:53;4.83;;;3.37;;
20454;SDS011;10386;54.314;10.022;2023-05-10T03:10:22;4.57;;;3.13;;
20454;SDS011;10386;54.314;10.022;2023-05-10T03:15:48;8.27;;;3.80;;
20454;SDS011;10386;54.314;10.022;2023-05-10T03:18:29;5.70;;;3.70;;
20454;SDS011;10386;54.314;10.022;2023-05-10T03:21:04;4.47;;;3.53;;
20454;SDS011;10386;54.314;10.022;2023-05-10T03:23:35;5.57;;;3.70;;
20454;SDS011;10386;54.314;10.022;2023-05-10T03:26:09;6.70;;;4.10;;
20454;SDS011;10386;54.314;10.022;2023-05-10T03:28:43;8.60;;;3.93;;
20454;SDS011;10386;54.314;10.022;2023-05-10T03:31:10;8.27;;;4.27;;
20454;SDS011;10386;54.314;10.022;2023-05-10T03:33:48;9.97;;;4.43;;
20454;SDS011;10386;54.314;10.022;2023-05-10T03:36:16;4.60;;;3.50;;
20454;SDS011;10386;54.314;10.022;2023-05-10T03:38:43;5.80;;;4.00;;
20454;SDS011;10386;54.314;10.022;2023-05-10T03:41:10;6.03;;;3.70;;
20454;SDS011;10386;54.314;10.022;2023-05-10T03:43:37;8.67;;;3.73;;
20454;SDS011;10386;54.314;10.022;2023-05-10T03:46:04;6.97;;;3.90;;
20454;SDS011;10386;54.314;10.022;2023-05-10T03:48:32;6.20;;;3.70;;
20454;SDS011;10386;54.314;10.022;2023-05-10T03:50:59;7.33;;;4.07;;
20454;SDS011;10386;54.314;10.022;2023-05-10T03:53:26;7.97;;;4.10;;
20454;SDS011;10386;54.314;10.022;2023-05-10T03:55:53;4.47;;;3.73;;
20454;SDS011;10386;54.314;10.022;2023-05-10T03:58:19;6.57;;;3.70;;
20454;SDS011;10386;54.314;10.022;2023-05-10T04:00:50;5.13;;;3.73;;
20454;SDS011;10386;54.314;10.022;2023-05-10T04:03:17;5.20;;;4.00;;
20454;SDS011;10386;54.314;10.022;2023-05-10T04:05:44;7.80;;;4.00;;
20454;SDS011;10386;54.314;10.022;2023-05-10T04:08:13;5.03;;;3.80;;
20454;SDS011;10386;54.314;10.022;2023-05-10T04:10:42;4.50;;;3.70;;
20454;SDS011;10386;54.314;10.022;2023-05-10T04:13:09;6.20;;;4.07;;
20454;SDS011;10386;54.314;10.022;2023-05-10T04:15:37;10.30;;;4.17;;
20454;SDS011;10386;54.314;10.022;2023-05-10T04:18:04;9.83;;;4.50;;
20454;SDS011;10386;54.314;10.022;2023-05-10T04:20:33;8.20;;;4.00;;
20454;SDS011;10386;54.314;10.022;2023-05-10T04:23:00;6.50;;;3.83;;
20454;SDS011;10386;54.314;10.022;2023-05-10T04:25:27;6.93;;;4.00;;
20454;SDS011;10386;54.314;10.022;2023-05-10T04:27:54;5.87;;;3.83;;
20454;SDS011;10386;54.314;10.022;2023-05-10T04:30:20;8.90;;;3.70;;
20454;SDS011;10386;54.314;10.022;2023-05-10T04:32:47;5.07;;;3.93;;
20454;SDS011;10386;54.314;10.022;2023-05-10T04:35:14;8.57;;;4.13;;
20454;SDS011;10386;54.314;10.022;2023-05-10T04:37:41;6.87;;;4.00;;
20454;SDS011;10386;54.314;10.022;2023-05-10T04:40:08;7.60;;;4.67;;
20454;SDS011;10386;54.314;10.022;2023-05-10T04:42:35;7.00;;;4.03;;
20454;SDS011;10386;54.314;10.022;2023-05-10T04:45:02;9.07;;;4.33;;
20454;SDS011;10386;54.314;10.022;2023-05-10T04:47:29;4.93;;;4.13;;
20454;SDS011;10386;54.314;10.022;2023-05-10T04:49:55;4.60;;;3.73;;
20454;SDS011;10386;54.314;10.022;2023-05-10T04:52:22;5.50;;;3.73;;
20454;SDS011;10386;54.314;10.022;2023-05-10T04:54:49;7.33;;;4.03;;
20454;SDS011;10386;54.314;10.022;2023-05-10T04:57:15;5.07;;;4.00;;
20454;SDS011;10386;54.314;10.022;2023-05-10T04:59:42;5.37;;;3.77;;
20454;SDS011;10386;54.314;10.022;2023-05-10T05:02:09;8.00;;;4.50;;
20454;SDS011;10386;54.314;10.022;2023-05-10T05:04:36;7.90;;;4.57;;
20454;SDS011;10386;54.314;10.022;2023-05-10T05:07:02;8.30;;;4.00;;
20454;SDS011;10386;54.314;10.022;2023-05-10T05:09:29;8.20;;;4.77;;
20454;SDS011;10386;54.314;10.022;2023-05-10T05:11:58;7.07;;;4.40;;
20454;SDS011;10386;54.314;10.022;2023-05-10T05:14:24;5.50;;;3.90;;
20454;SDS011;10386;54.314;10.022;2023-05-10T05:16:51;5.97;;;4.07;;
20454;SDS011;10386;54.314;10.022;2023-05-10T05:19:18;8.30;;;4.20;;
20454;SDS011;10386;54.314;10.022;2023-05-10T05:21:45;7.37;;;4.27;;
20454;SDS011;10386;54.314;10.022;2023-05-10T05:24:12;5.40;;;4.40;;
20454;SDS011;10386;54.314;10.022;2023-05-10T05:26:39;9.10;;;4.50;;
20454;SDS011;10386;54.314;10.022;2023-05-10T05:29:05;7.23;;;4.90;;
20454;SDS011;10386;54.314;10.022;2023-05-10T05:31:34;5.73;;;4.10;;
20454;SDS011;10386;54.314;10.022;2023-05-10T05:34:01;5.43;;;4.10;;
20454;SDS011;10386;54.314;10.022;2023-05-10T05:36:28;4.50;;;3.97;;
20454;SDS011;10386;54.314;10.022;2023-05-10T05:38:55;7.70;;;4.10;;
20454;SDS011;10386;54.314;10.022;2023-05-10T05:41:21;8.07;;;3.90;;
20454;SDS011;10386;54.314;10.022;2023-05-10T05:43:48;6.97;;;4.10;;
20454;SDS011;10386;54.314;10.022;2023-05-10T05:46:15;9.00;;;4.23;;
20454;SDS011;10386;54.314;10.022;2023-05-10T05:48:42;7.63;;;3.80;;
20454;SDS011;10386;54.314;10.022;2023-05-10T05:51:09;8.13;;;4.30;;
20454;SDS011;10386;54.314;10.022;2023-05-10T05:53:37;7.27;;;4.13;;
20454;SDS011;10386;54.314;10.022;2023-05-10T05:56:03;7.80;;;4.30;;
20454;SDS011;10386;54.314;10.022;2023-05-10T05:58:33;6.27;;;4.03;;
20454;SDS011;10386;54.314;10.022;2023-05-10T06:01:00;6.30;;;4.17;;
20454;SDS011;10386;54.314;10.022;2023-05-10T06:03:26;7.17;;;4.27;;
20454;SDS011;10386;54.314;10.022;2023-05-10T06:05:53;6.00;;;4.50;;
20454;SDS011;10386;54.314;10.022;2023-05-10T06:08:20;8.30;;;4.13;;
20454;SDS011;10386;54.314;10.022;2023-05-10T06:10:47;5.87;;;4.37;;
20454;SDS011;10386;54.314;10.022;2023-05-10T06:13:14;9.93;;;4.30;;
20454;SDS011;10386;54.314;10.022;2023-05-10T06:15:40;6.27;;;4.20;;
20454;SDS011;10386;54.314;10.022;2023-05-10T06:18:07;7.70;;;4.23;;
20454;SDS011;10386;54.314;10.022;2023-05-10T06:20:34;6.10;;;4.30;;
20454;SDS011;10386;54.314;10.022;2023-05-10T06:23:01;7.33;;;4.43;;
20454;SDS011;10386;54.314;10.022;2023-05-10T06:25:28;7.93;;;3.97;;
20454;SDS011;10386;54.314;10.022;2023-05-10T06:27:55;6.30;;;4.43;;
20454;SDS011;10386;54.314;10.022;2023-05-10T06:30:24;4.77;;;4.23;;
20454;SDS011;10386;54.314;10.022;2023-05-10T06:32:55;5.83;;;4.13;;
20454;SDS011;10386;54.314;10.022;2023-05-10T06:35:22;7.87;;;4.07;;
20454;SDS011;10386;54.314;10.022;2023-05-10T06:37:50;5.67;;;3.90;;
20454;SDS011;10386;54.314;10.022;2023-05-10T06:40:17;8.03;;;4.57;;
20454;SDS011;10386;54.314;10.022;2023-05-10T06:42:44;6.57;;;4.30;;
20454;SDS011;10386;54.314;10.022;2023-05-10T06:45:12;4.17;;;3.70;;
20454;SDS011;10386;54.314;10.022;2023-05-10T06:47:41;6.67;;;3.83;;
20454;SDS011;10386;54.314;10.022;2023-05-10T06:50:08;7.57;;;4.60;;
20454;SDS011;10386;54.314;10.022;2023-05-10T06:52:35;8.60;;;4.20;;
20454;SDS011;10386;54.314;10.022;2023-05-10T06:55:05;5.20;;;4.10;;
20454;SDS011;10386;54.314;10.022;2023-05-10T06:57:32;5.70;;;3.83;;
20454;SDS011;10386;54.314;10.022;2023-05-10T06:59:59;7.20;;;4.60;;
20454;SDS011;10386;54.314;10.022;2023-05-10T07:02:26;11.83;;;4.70;;
20454;SDS011;10386;54.314;10.022;2023-05-10T07:04:53;6.20;;;4.50;;
20454;SDS011;10386;54.314;10.022;2023-05-10T07:07:20;10.63;;;4.23;;
20454;SDS011;10386;54.314;10.022;2023-05-10T07:09:47;10.67;;;4.13;;
20454;SDS011;10386;54.314;10.022;2023-05-10T07:12:15;8.10;;;3.97;;
20454;SDS011;10386;54.314;10.022;2023-05-10T07:14:42;8.73;;;5.07;;
20454;SDS011;10386;54.314;10.022;2023-05-10T07:17:09;9.07;;;4.37;;
20454;SDS011;10386;54.314;10.022;2023-05-10T07:19:36;4.40;;;3.80;;
20454;SDS011;10386;54.314;10.022;2023-05-10T07:22:03;7.17;;;4.70;;
20454;SDS011;10386;54.314;10.022;2023-05-10T07:24:29;6.97;;;4.13;;
20454;SDS011;10386;54.314;10.022;2023-05-10T07:26:57;6.93;;;4.30;;
20454;SDS011;10386;54.314;10.022;2023-05-10T07:29:24;5.07;;;3.97;;
20454;SDS011;10386;54.314;10.022;2023-05-10T07:31:51;9.30;;;4.03;;
20454;SDS011;10386;54.314;10.022;2023-05-10T07:34:18;6.97;;;4.03;;
20454;SDS011;10386;54.314;10.022;2023-05-10T07:36:44;5.87;;;4.17;;
20454;SDS011;10386;54.314;10.022;2023-05-10T07:39:11;6.80;;;4.30;;
20454;SDS011;10386;54.314;10.022;2023-05-10T07:41:49;5.33;;;4.33;;
20454;SDS011;10386;54.314;10.022;2023-05-10T07:44:16;6.93;;;4.23;;
20454;SDS011;10386;54.314;10.022;2023-05-10T07:46:45;5.73;;;4.47;;
20454;SDS011;10386;54.314;10.022;2023-05-10T07:49:12;7.10;;;4.57;;
20454;SDS011;10386;54.314;10.022;2023-05-10T07:51:40;7.50;;;4.00;;
20454;SDS011;10386;54.314;10.022;2023-05-10T07:54:07;4.73;;;4.17;;
20454;SDS011;10386;54.314;10.022;2023-05-10T07:56:33;9.40;;;4.70;;
20454;SDS011;10386;54.314;10.022;2023-05-10T07:59:01;5.17;;;4.40;;
20454;SDS011;10386;54.314;10.022;2023-05-10T08:01:35;8.07;;;3.93;;
20454;SDS011;10386;54.314;10.022;2023-05-10T08:04:02;10.73;;;4.63;;
20454;SDS011;10386;54.314;10.022;2023-05-10T08:06:29;8.07;;;4.50;;
20454;SDS011;10386;54.314;10.022;2023-05-10T08:08:56;7.00;;;4.10;;
20454;SDS011;10386;54.314;10.022;2023-05-10T08:11:23;10.57;;;4.80;;
20454;SDS011;10386;54.314;10.022;2023-05-10T08:13:50;6.93;;;4.60;;
20454;SDS011;10386;54.314;10.022;2023-05-10T08:16:18;9.33;;;4.37;;
20454;SDS011;10386;54.314;10.022;2023-05-10T08:18:45;10.67;;;4.40;;
20454;SDS011;10386;54.314;10.022;2023-05-10T08:21:13;6.00;;;4.50;;
20454;SDS011;10386;54.314;10.022;2023-05-10T08:23:41;4.83;;;4.10;;
20454;SDS011;10386;54.314;10.022;2023-05-10T08:26:09;7.87;;;4.17;;
20454;SDS011;10386;54.314;10.022;2023-05-10T08:28:37;8.30;;;4.60;;
20454;SDS011;10386;54.314;10.022;2023-05-10T08:31:04;9.57;;;4.90;;
20454;SDS011;10386;54.314;10.022;2023-05-10T08:33:31;13.70;;;5.07;;
20454;SDS011;10386;54.314;10.022;2023-05-10T08:35:58;5.33;;;4.10;;
20454;SDS011;10386;54.314;10.022;2023-05-10T08:38:25;4.97;;;4.33;;
20454;SDS011;10386;54.314;10.022;2023-05-10T08:40:52;6.73;;;4.20;;
20454;SDS011;10386;54.314;10.022;2023-05-10T08:43:22;6.57;;;4.20;;
20454;SDS011;10386;54.314;10.022;2023-05-10T08:45:55;6.13;;;4.57;;
20454;SDS011;10386;54.314;10.022;2023-05-10T08:48:25;9.30;;;4.80;;
20454;SDS011;10386;54.314;10.022;2023-05-10T08:50:55;4.80;;;4.07;;
20454;SDS011;10386;54.314;10.022;2023-05-10T08:53:26;7.67;;;4.17;;
20454;SDS011;10386;54.314;10.022;2023-05-10T08:55:53;6.20;;;4.90;;
20454;SDS011;10386;54.314;10.022;2023-05-10T08:58:21;7.63;;;4.03;;
20454;SDS011;10386;54.314;10.022;2023-05-10T09:00:48;8.00;;;4.40;;
20454;SDS011;10386;54.314;10.022;2023-05-10T09:03:18;5.60;;;4.43;;
20454;SDS011;10386;54.314;10.022;2023-05-10T09:05:46;8.07;;;4.27;;
20454;SDS011;10386;54.314;10.022;2023-05-10T09:08:13;4.80;;;4.00;;
20454;SDS011;10386;54.314;10.022;2023-05-10T09:10:45;8.97;;;3.90;;
20454;SDS011;10386;54.314;10.022;2023-05-10T09:13:14;8.80;;;4.40;;
20454;SDS011;10386;54.314;10.022;2023-05-10T09:15:44;8.20;;;4.53;;
20454;SDS011;10386;54.314;10.022;2023-05-10T09:18:11;7.40;;;4.73;;
20454;SDS011;10386;54.314;10.022;2023-05-10T09:20:39;5.30;;;4.50;;
20454;SDS011;10386;54.314;10.022;2023-05-10T09:23:06;5.77;;;4.67;;
20454;SDS011;10386;54.314;10.022;2023-05-10T09:25:33;10.30;;;4.57;;
20454;SDS011;10386;54.314;10.022;2023-05-10T09:28:00;6.43;;;4.60;;
20454;SDS011;10386;54.314;10.022;2023-05-10T09:30:30;7.83;;;4.73;;
20454;SDS011;10386;54.314;10.022;2023-05-10T09:32:58;9.70;;;5.00;;
20454;SDS011;10386;54.314;10.022;2023-05-10T09:35:29;11.07;;;4.50;;
20454;SDS011;10386;54.314;10.022;2023-05-10T09:37:59;10.13;;;5.00;;
20454;SDS011;10386;54.314;10.022;2023-05-10T09:40:28;6.10;;;4.50;;
20454;SDS011;10386;54.314;10.022;2023-05-10T09:43:08;8.70;;;4.95;;
20454;SDS011;10386;54.314;10.022;2023-05-10T09:45:37;6.80;;;4.67;;
20454;SDS011;10386;54.314;10.022;2023-05-10T09:48:04;10.88;;;5.05;;
20454;SDS011;10386;54.314;10.022;2023-05-10T09:50:31;6.47;;;4.83;;
20454;SDS011;10386;54.314;10.022;2023-05-10T09:52:59;5.87;;;4.50;;
20454;SDS011;10386;54.314;10.022;2023-05-10T09:58:06;6.72;;;4.70;;
20454;SDS011;10386;54.314;10.022;2023-05-10T10:00:37;6.35;;;4.65;;
20454;SDS011;10386;54.314;10.022;2023-05-10T10:03:05;14.47;;;4.80;;
20454;SDS011;10386;54.314;10.022;2023-05-10T10:05:34;8.30;;;4.60;;
20454;SDS011;10386;54.314;10.022;2023-05-10T10:08:03;6.53;;;4.70;;
20454;SDS011;10386;54.314;10.022;2023-05-10T10:10:31;5.00;;;4.50;;
20454;SDS011;10386;54.314;10.022;2023-05-10T10:12:59;8.55;;;4.75;;
20454;SDS011;10386;54.314;10.022;2023-05-10T10:15:26;5.60;;;4.57;;
20454;SDS011;10386;54.314;10.022;2023-05-10T10:17:53;7.95;;;4.65;;
20454;SDS011;10386;54.314;10.022;2023-05-10T10:20:21;9.57;;;4.35;;
20454;SDS011;10386;54.314;10.022;2023-05-10T10:22:49;7.35;;;4.43;;
20454;SDS011;10386;54.314;10.022;2023-05-10T10:25:16;7.13;;;4.28;;
20454;SDS011;10386;54.314;10.022;2023-05-10T10:35:54;7.03;;;4.47;;
20454;SDS011;10386;54.314;10.022;2023-05-10T10:38:24;6.60;;;4.20;;
20454;SDS011;10386;54.314;10.022;2023-05-10T10:41:10;8.60;;;4.97;;
20454;SDS011;10386;54.314;10.022;2023-05-10T10:52:21;10.27;;;4.32;;
20454;SDS011;10386;54.314;10.022;2023-05-10T10:54:59;5.10;;;4.35;;
20454;SDS011;10386;54.314;10.022;2023-05-10T10:57:53;7.28;;;4.28;;
20454;SDS011;10386;54.314;10.022;2023-05-10T11:00:30;11.13;;;4.43;;
20454;SDS011;10386;54.314;10.022;2023-05-10T11:03:10;7.43;;;4.40;;
20454;SDS011;10386;54.314;10.022;2023-05-10T11:13:31;7.18;;;4.40;;
20454;SDS011;10386;54.314;10.022;2023-05-10T11:16:09;6.38;;;4.50;;
20454;SDS011;10386;54.314;10.022;2023-05-10T11:18:37;6.32;;;4.20;;
20454;SDS011;10386;54.314;10.022;2023-05-10T11:21:04;6.55;;;4.10;;
20454;SDS011;10386;54.314;10.022;2023-05-10T11:26:07;5.80;;;4.18;;
20454;SDS011;10386;54.314;10.022;2023-05-10T11:28:44;9.88;;;4.88;;
20454;SDS011;10386;54.314;10.022;2023-05-10T11:31:15;9.82;;;4.60;;
20454;SDS011;10386;54.314;10.022;2023-05-10T11:36:14;9.98;;;4.15;;
20454;SDS011;10386;54.314;10.022;2023-05-10T11:38:45;8.10;;;4.45;;
20454;SDS011;10386;54.314;10.022;2023-05-10T11:41:13;7.85;;;4.55;;
20454;SDS011;10386;54.314;10.022;2023-05-10T11:43:40;10.38;;;4.90;;
20454;SDS011;10386;54.314;10.022;2023-05-10T11:46:08;7.68;;;4.50;;
20454;SDS011;10386;54.314;10.022;2023-05-10T11:48:41;5.90;;;4.60;;
20454;SDS011;10386;54.314;10.022;2023-05-10T11:51:10;8.93;;;4.47;;
20454;SDS011;10386;54.314;10.022;2023-05-10T11:53:37;9.20;;;5.10;;
20454;SDS011;10386;54.314;10.022;2023-05-10T11:56:09;10.10;;;4.72;;
20454;SDS011;10386;54.314;10.022;2023-05-10T11:58:38;6.75;;;4.68;;
20454;SDS011;10386;54.314;10.022;2023-05-10T12:01:07;7.30;;;4.72;;
20454;SDS011;10386;54.314;10.022;2023-05-10T12:03:35;7.53;;;4.80;;
20454;SDS011;10386;54.314;10.022;2023-05-10T12:06:03;7.88;;;4.70;;
20454;SDS011;10386;54.314;10.022;2023-05-10T12:08:30;7.68;;;4.82;;
20454;SDS011;10386;54.314;10.022;2023-05-10T12:11:04;12.18;;;5.30;;
20454;SDS011;10386;54.314;10.022;2023-05-10T12:13:40;8.32;;;5.03;;
20454;SDS011;10386;54.314;10.022;2023-05-10T12:16:15;9.43;;;5.95;;
20454;SDS011;10386;54.314;10.022;2023-05-10T12:18:50;9.95;;;5.65;;
20454;SDS011;10386;54.314;10.022;2023-05-10T12:21:22;11.85;;;6.00;;
20454;SDS011;10386;54.314;10.022;2023-05-10T12:23:52;11.52;;;7.20;;
20454;SDS011;10386;54.314;10.022;2023-05-10T12:26:23;11.13;;;7.10;;
20454;SDS011;10386;54.314;10.022;2023-05-10T12:28:52;13.77;;;7.23;;
20454;SDS011;10386;54.314;10.022;2023-05-10T12:31:20;9.47;;;7.10;;
20454;SDS011;10386;54.314;10.022;2023-05-10T12:33:49;14.17;;;7.60;;
20454;SDS011;10386;54.314;10.022;2023-05-10T12:36:16;15.47;;;7.87;;
20454;SDS011;10386;54.314;10.022;2023-05-10T12:38:49;15.90;;;8.37;;
20454;SDS011;10386;54.314;10.022;2023-05-10T12:41:18;13.50;;;8.40;;
20454;SDS011;10386;54.314;10.022;2023-05-10T12:43:45;11.80;;;8.17;;
20454;SDS011;10386;54.314;10.022;2023-05-10T12:46:13;13.17;;;8.30;;
20454;SDS011;10386;54.314;10.022;2023-05-10T12:48:43;14.43;;;8.60;;
20454;SDS011;10386;54.314;10.022;2023-05-10T12:51:10;16.00;;;8.97;;
20454;SDS011;10386;54.314;10.022;2023-05-10T12:53:43;15.67;;;9.40;;
20454;SDS011;10386;54.314;10.022;2023-05-10T12:56:14;16.63;;;9.27;;
20454;SDS011;10386;54.314;10.022;2023-05-10T12:58:41;13.47;;;9.60;;
20454;SDS011;10386;54.314;10.022;2023-05-10T13:01:08;18.70;;;9.93;;
20454;SDS011;10386;54.314;10.022;2023-05-10T13:03:35;12.73;;;9.53;;
20454;SDS011;10386;54.314;10.022;2023-05-10T13:06:01;15.43;;;9.97;;
20454;SDS011;10386;54.314;10.022;2023-05-10T13:08:28;15.03;;;9.70;;
20454;SDS011;10386;54.314;10.022;2023-05-10T13:11:00;14.83;;;9.57;;
20454;SDS011;10386;54.314;10.022;2023-05-10T13:13:27;15.80;;;10.47;;
20454;SDS011;10386;54.314;10.022;2023-05-10T13:15:53;17.23;;;10.27;;
20454;SDS011;10386;54.314;10.022;2023-05-10T13:18:20;18.27;;;10.50;;
20454;SDS011;10386;54.314;10.022;2023-05-10T13:20:50;14.57;;;9.47;;
20454;SDS011;10386;54.314;10.022;2023-05-10T13:23:17;15.53;;;9.97;;
20454;SDS011;10386;54.314;10.022;2023-05-10T13:25:47;15.87;;;10.17;;
20454;SDS011;10386;54.314;10.022;2023-05-10T13:28:13;19.97;;;9.73;;
20454;SDS011;10386;54.314;10.022;2023-05-10T13:30:40;13.73;;;9.43;;
20454;SDS011;10386;54.314;10.022;2023-05-10T13:33:07;13.10;;;9.37;;
20454;SDS011;10386;54.314;10.022;2023-05-10T13:35:33;17.17;;;9.70;;
20454;SDS011;10386;54.314;10.022;2023-05-10T13:38:00;16.27;;;10.37;;
20454;SDS011;10386;54.314;10.022;2023-05-10T13:40:27;18.43;;;10.70;;
20454;SDS011;10386;54.314;10.022;2023-05-10T13:42:54;16.50;;;10.37;;
20454;SDS011;10386;54.314;10.022;2023-05-10T13:45:21;16.53;;;10.00;;
20454;SDS011;10386;54.314;10.022;2023-05-10T13:47:47;14.50;;;9.90;;
20454;SDS011;10386;54.314;10.022;2023-05-10T13:50:18;15.90;;;9.87;;
20454;SDS011;10386;54.314;10.022;2023-05-10T13:52:45;16.33;;;10.80;;
20454;SDS011;10386;54.314;10.022;2023-05-10T13:55:12;14.67;;;9.70;;
20454;SDS011;10386;54.314;10.022;2023-05-10T13:57:39;12.27;;;8.77;;
20454;SDS011;10386;54.314;10.022;2023-05-10T14:00:08;17.33;;;10.33;;
20454;SDS011;10386;54.314;10.022;2023-05-10T14:02:37;15.67;;;9.50;;
20454;SDS011;10386;54.314;10.022;2023-05-10T14:05:04;14.87;;;9.57;;
20454;SDS011;10386;54.314;10.022;2023-05-10T14:07:32;16.07;;;9.43;;
20454;SDS011;10386;54.314;10.022;2023-05-10T14:09:58;15.07;;;9.20;;
20454;SDS011;10386;54.314;10.022;2023-05-10T14:12:25;15.87;;;9.90;;
20454;SDS011;10386;54.314;10.022;2023-05-10T14:14:52;13.90;;;9.37;;
20454;SDS011;10386;54.314;10.022;2023-05-10T14:17:18;15.97;;;9.77;;
20454;SDS011;10386;54.314;10.022;2023-05-10T14:19:45;13.70;;;9.43;;
20454;SDS011;10386;54.314;10.022;2023-05-10T14:22:12;14.60;;;10.03;;
20454;SDS011;10386;54.314;10.022;2023-05-10T14:24:39;14.90;;;9.80;;
20454;SDS011;10386;54.314;10.022;2023-05-10T14:27:05;15.90;;;10.33;;
20454;SDS011;10386;54.314;10.022;2023-05-10T14:29:33;16.97;;;9.60;;
20454;SDS011;10386;54.314;10.022;2023-05-10T14:32:00;15.90;;;10.27;;
20454;SDS011;10386;54.314;10.022;2023-05-10T14:34:26;15.77;;;9.60;;
20454;SDS011;10386;54.314;10.022;2023-05-10T14:36:53;16.13;;;9.63;;
20454;SDS011;10386;54.314;10.022;2023-05-10T14:39:20;13.47;;;9.23;;
20454;SDS011;10386;54.314;10.022;2023-05-10T14:41:47;12.63;;;9.17;;
20454;SDS011;10386;54.314;10.022;2023-05-10T14:44:14;14.53;;;9.57;;
20454;SDS011;10386;54.314;10.022;2023-05-10T14:46:41;12.00;;;8.70;;
20454;SDS011;10386;54.314;10.022;2023-05-10T14:49:08;12.90;;;9.03;;
20454;SDS011;10386;54.314;10.022;2023-05-10T14:51:35;11.17;;;8.67;;
20454;SDS011;10386;54.314;10.022;2023-05-10T14:54:03;11.33;;;8.07;;
20454;SDS011;10386;54.314;10.022;2023-05-10T14:56:29;11.20;;;8.20;;
20454;SDS011;10386;54.314;10.022;2023-05-10T14:58:56;10.07;;;7.60;;
20454;SDS011;10386;54.314;10.022;2023-05-10T15:01:23;11.13;;;8.20;;
20454;SDS011;10386;54.314;10.022;2023-05-10T15:03:51;10.17;;;7.40;;
20454;SDS011;10386;54.314;10.022;2023-05-10T15:06:22;9.70;;;8.00;;
20454;SDS011;10386;54.314;10.022;2023-05-10T15:08:51;10.03;;;7.63;;
20454;SDS011;10386;54.314;10.022;2023-05-10T15:11:18;13.63;;;8.77;;
20454;SDS011;10386;54.314;10.022;2023-05-10T15:13:44;12.53;;;7.53;;
20454;SDS011;10386;54.314;10.022;2023-05-10T15:16:11;9.67;;;6.93;;
20454;SDS011;10386;54.314;10.022;2023-05-10T15:18:41;8.60;;;6.93;;
20454;SDS011;10386;54.314;10.022;2023-05-10T15:21:08;13.20;;;7.23;;
20454;SDS011;10386;54.314;10.022;2023-05-10T15:23:35;8.83;;;6.00;;
20454;SDS011;10386;54.314;10.022;2023-05-10T15:26:02;8.97;;;6.20;;
20454;SDS011;10386;54.314;10.022;2023-05-10T15:28:29;8.27;;;5.80;;